Weather at Zagreb Airport

Public forecast

Using degrees Celsius for public forecast. Weather courtesy of forecast.io.

Current aviation weather report (METAR) for Zagreb Airport

2022/11/27 09:30 (retrieved 19 minutes ago)

LDZA 270930Z VRB01KT CAVOK 07/06 Q1030 NOSIG

Aviation forecast (TAF) for Zagreb Airport

2022/11/27 06:27 (retrieved 3 hours ago)

TAF LDZA 270525Z 2706/2806 VRB02KT 8000 NSC TX08/2713Z TN01/2706Z PROB30 TEMPO 2706/2708 2000 BR BECMG 2720/2722 3000 BR BKN005 PROB40 TEMPO 2800/2806 0300 FG VV002